createdAt,value
2019-02-08T00:00:43.951Z,0
2019-02-08T00:01:45.081Z,0
2019-02-08T00:02:45.397Z,0
2019-02-08T00:03:46.145Z,0
2019-02-08T00:04:48.519Z,0
2019-02-08T00:05:48.387Z,0
2019-02-08T00:06:48.984Z,0
2019-02-08T00:07:50.425Z,0
2019-02-08T00:08:50.635Z,0
2019-02-08T00:09:51.527Z,0
2019-02-08T00:10:52.103Z,0
2019-02-08T00:11:53.074Z,0
2019-02-08T00:12:53.807Z,0
2019-02-08T00:13:54.816Z,0
2019-02-08T00:14:55.671Z,0
2019-02-08T00:15:56.640Z,0
2019-02-08T00:16:57.731Z,0
2019-02-08T00:17:57.464Z,0
2019-02-08T00:19:00.065Z,0
2019-02-08T00:20:01.123Z,0
2019-02-08T00:21:02.921Z,0
2019-02-08T00:22:04.570Z,0
2019-02-08T00:23:03.011Z,0
2019-02-08T00:24:04.298Z,0
2019-02-08T00:25:06.147Z,0
2019-02-08T00:26:07.093Z,0
2019-02-08T00:27:08.962Z,0
2019-02-08T00:28:08.244Z,0
2019-02-08T00:29:09.700Z,0
2019-02-08T00:30:11.926Z,0
2019-02-08T00:31:12.219Z,0
2019-02-08T00:32:13.089Z,0
2019-02-08T00:33:14.065Z,0
2019-02-08T00:34:14.207Z,0
2019-02-08T00:35:16.180Z,0
2019-02-08T00:36:15.881Z,0
2019-02-08T00:37:16.025Z,0
2019-02-08T00:38:17.719Z,0
2019-02-08T00:39:20.475Z,0
2019-02-08T00:40:19.199Z,0
2019-02-08T00:41:20.732Z,0
2019-02-08T00:42:20.722Z,0
2019-02-08T00:43:20.872Z,0
2019-02-08T00:44:21.566Z,0
2019-02-08T00:45:22.023Z,0
2019-02-08T00:46:22.448Z,0
2019-02-08T00:47:25.116Z,0
2019-02-08T00:48:24.209Z,0
2019-02-08T00:49:25.230Z,0
2019-02-08T00:50:26.488Z,0
2019-02-08T00:51:26.750Z,0
2019-02-08T00:52:26.895Z,0
2019-02-08T00:53:40.624Z,0
2019-02-08T00:54:41.186Z,0
2019-02-08T00:55:41.603Z,0
2019-02-08T00:56:43.791Z,0
2019-02-08T00:57:43.501Z,0
2019-02-08T00:58:43.920Z,0
2019-02-08T00:59:45.329Z,0
2019-02-08T01:00:45.475Z,0
2019-02-08T01:01:46.905Z,0
2019-02-08T01:02:47.615Z,0
2019-02-08T01:03:49.041Z,0
2019-02-08T01:04:50.273Z,0
2019-02-08T01:05:52.178Z,0
2019-02-08T01:06:52.103Z,0
2019-02-08T01:07:51.546Z,0
2019-02-08T01:08:52.811Z,0
2019-02-08T01:09:53.228Z,0
2019-02-08T01:10:55.762Z,0
2019-02-08T01:11:55.227Z,0
2019-02-08T01:12:55.937Z,0
2019-02-08T01:13:57.187Z,0
2019-02-08T01:14:57.573Z,0
2019-02-08T01:15:57.986Z,0
2019-02-08T01:16:59.408Z,0
2019-02-08T01:17:59.842Z,0
2019-02-08T01:19:00.598Z,0
2019-02-08T01:20:01.119Z,0
2019-02-08T01:21:02.093Z,0
2019-02-08T01:22:04.720Z,0
2019-02-08T01:23:04.226Z,0
2019-02-08T01:24:04.649Z,0
2019-02-08T01:25:06.620Z,0
2019-02-08T01:26:06.873Z,0
2019-02-08T01:27:06.286Z,0
2019-02-08T01:28:07.250Z,0
2019-02-08T01:29:07.663Z,0
2019-02-08T01:30:08.384Z,0
2019-02-08T01:31:08.812Z,0
2019-02-08T01:32:09.498Z,0
2019-02-08T01:33:10.467Z,0
2019-02-08T01:34:12.046Z,0
2019-02-08T01:35:11.628Z,0
2019-02-08T01:36:13.318Z,0
2019-02-08T01:37:14.009Z,0
2019-02-08T01:38:14.148Z,0
2019-02-08T01:39:15.875Z,0
2019-02-08T01:40:16.847Z,0
2019-02-08T01:41:16.986Z,0
2019-02-08T01:42:18.127Z,0
2019-02-08T01:43:19.824Z,0
2019-02-08T01:44:20.556Z,0
2019-02-08T01:45:20.841Z,0
2019-02-08T01:46:22.535Z,0
2019-02-08T01:47:23.228Z,0
2019-02-08T01:48:23.643Z,0
2019-02-08T01:49:25.167Z,0
2019-02-08T01:50:25.583Z,0
2019-02-08T01:51:26.006Z,0
2019-02-08T01:52:27.259Z,0
2019-02-08T01:53:27.505Z,0
2019-02-08T01:54:27.474Z,0
2019-02-08T01:55:28.318Z,0
2019-02-08T01:56:29.734Z,0
2019-02-08T01:57:30.714Z,0
2019-02-08T01:58:30.854Z,0
2019-02-08T01:59:31.824Z,0
2019-02-08T02:00:32.796Z,0
2019-02-08T02:01:33.776Z,0
2019-02-08T02:02:35.033Z,0
2019-02-08T02:03:35.448Z,0
2019-02-08T02:04:36.430Z,0
2019-02-08T02:05:37.872Z,0
2019-02-08T02:06:37.625Z,0
2019-02-08T02:07:38.605Z,0
2019-02-08T02:08:38.019Z,0
2019-02-08T02:09:39.712Z,0
2019-02-08T02:10:40.408Z,0
2019-02-08T02:11:40.823Z,0
2019-02-08T02:12:40.958Z,0
2019-02-08T02:13:42.935Z,0
2019-02-08T02:14:43.349Z,0
2019-02-08T02:15:44.772Z,0
2019-02-08T02:16:45.463Z,0
2019-02-08T02:17:46.159Z,0
2019-02-08T02:18:46.574Z,0
2019-02-08T02:19:46.988Z,0
2019-02-08T02:20:48.677Z,0
2019-02-08T02:21:49.649Z,0
2019-02-08T02:22:50.106Z,0
2019-02-08T02:24:05.118Z,0
2019-02-08T02:25:05.816Z,0
2019-02-08T02:26:07.107Z,0
2019-02-08T02:27:08.350Z,0
2019-02-08T02:28:08.055Z,0
2019-02-08T02:29:08.192Z,0
2019-02-08T02:30:10.446Z,0
2019-02-08T02:31:11.005Z,0
2019-02-08T02:32:11.557Z,0
2019-02-08T02:33:12.103Z,0
2019-02-08T02:34:13.080Z,0
2019-02-08T02:35:14.343Z,0
2019-02-08T02:36:15.596Z,0
2019-02-08T02:37:15.603Z,0
2019-02-08T02:38:16.948Z,0
2019-02-08T02:39:17.217Z,0
2019-02-08T02:40:18.207Z,0
2019-02-08T02:41:18.176Z,0
2019-02-08T02:42:19.715Z,0
2019-02-08T02:43:19.682Z,0
2019-02-08T02:44:20.654Z,0
2019-02-08T02:45:20.798Z,0
2019-02-08T02:46:22.628Z,0
2019-02-08T02:47:22.629Z,0
2019-02-08T02:48:23.045Z,0
2019-02-08T02:49:23.209Z,0
2019-02-08T02:50:24.464Z,0
2019-02-08T02:51:25.711Z,0
2019-02-08T02:52:26.257Z,0
2019-02-08T02:53:26.829Z,0
2019-02-08T02:54:26.542Z,0
2019-02-08T02:55:28.291Z,0
2019-02-08T02:56:29.266Z,0
2019-02-08T02:57:29.973Z,0
2019-02-08T02:58:31.781Z,0
2019-02-08T02:59:32.073Z,0
2019-02-08T03:00:32.796Z,0
2019-02-08T03:01:32.937Z,0
2019-02-08T03:02:34.465Z,0
2019-02-08T03:03:34.893Z,0
2019-02-08T03:04:36.432Z,0
2019-02-08T03:05:36.288Z,0
2019-02-08T03:06:37.544Z,0
2019-02-08T03:07:38.232Z,0
2019-02-08T03:08:41.387Z,0
2019-02-08T03:09:40.520Z,0
2019-02-08T03:10:40.515Z,0
2019-02-08T03:11:40.786Z,0
2019-02-08T03:12:41.758Z,0
2019-02-08T03:13:42.168Z,0
2019-02-08T03:14:43.429Z,0
2019-02-08T03:15:44.651Z,0
2019-02-08T03:16:45.122Z,0
2019-02-08T03:17:46.107Z,0
2019-02-08T03:18:46.552Z,0
2019-02-08T03:19:47.979Z,0
2019-02-08T03:20:48.977Z,0
2019-02-08T03:21:50.241Z,0
2019-02-08T03:22:51.224Z,0
2019-02-08T03:23:51.759Z,0
2019-02-08T03:24:52.177Z,0
2019-02-08T03:25:52.590Z,0
2019-02-08T03:26:53.291Z,0
2019-02-08T03:27:54.255Z,0
2019-02-08T03:28:54.669Z,0
2019-02-08T03:29:56.239Z,0
2019-02-08T03:30:58.658Z,0
2019-02-08T03:31:59.081Z,0
2019-02-08T03:32:59.849Z,0
2019-02-08T03:33:58.561Z,0
2019-02-08T03:34:58.972Z,0
2019-02-08T03:36:00.647Z,0
2019-02-08T03:37:01.101Z,0
2019-02-08T03:38:01.796Z,0
2019-02-08T03:39:02.764Z,0
2019-02-08T03:40:02.770Z,0
2019-02-08T03:41:04.050Z,0
2019-02-08T03:42:03.750Z,0
2019-02-08T03:43:05.452Z,0
2019-02-08T03:44:06.423Z,0
2019-02-08T03:45:07.537Z,0
2019-02-08T03:46:07.851Z,0
2019-02-08T03:47:08.385Z,0
2019-02-08T03:48:08.841Z,0
2019-02-08T03:49:09.813Z,0
2019-02-08T03:50:11.633Z,0
2019-02-08T03:51:11.885Z,0
2019-02-08T03:52:11.581Z,0
2019-02-08T03:53:12.276Z,0
2019-02-08T03:54:24.720Z,0
2019-02-08T03:55:25.764Z,0
2019-02-08T03:56:27.028Z,0
2019-02-08T03:57:27.449Z,0
2019-02-08T03:58:27.861Z,0
2019-02-08T03:59:29.122Z,0
2019-02-08T04:00:30.128Z,0
2019-02-08T04:01:30.140Z,0
2019-02-08T04:02:31.393Z,0
2019-02-08T04:03:32.362Z,0
2019-02-08T04:04:32.087Z,0
2019-02-08T04:05:34.066Z,0
2019-02-08T04:06:33.763Z,0
2019-02-08T04:07:34.735Z,0
2019-02-08T04:08:34.705Z,0
2019-02-08T04:09:36.581Z,0
2019-02-08T04:10:36.551Z,0
2019-02-08T04:11:37.521Z,0
2019-02-08T04:12:38.213Z,0
2019-02-08T04:13:39.739Z,0
2019-02-08T04:14:39.722Z,0
2019-02-08T04:15:40.990Z,0
2019-02-08T04:16:41.405Z,0
2019-02-08T04:17:41.828Z,0
2019-02-08T04:18:44.664Z,0
2019-02-08T04:19:43.089Z,0
2019-02-08T04:20:45.646Z,0
2019-02-08T04:21:45.892Z,0
2019-02-08T04:22:46.605Z,0
2019-02-08T04:23:47.300Z,0
2019-02-08T04:24:48.991Z,0
2019-02-08T04:25:49.978Z,0
2019-02-08T04:26:50.961Z,0
2019-02-08T04:27:51.100Z,0
2019-02-08T04:28:52.793Z,0
2019-02-08T04:29:53.227Z,0
2019-02-08T04:30:55.202Z,0
2019-02-08T04:31:56.170Z,0
2019-02-08T04:32:57.178Z,0
2019-02-08T04:33:58.700Z,0
2019-02-08T04:34:58.393Z,0
2019-02-08T04:36:00.661Z,0
2019-02-08T04:37:00.938Z,0
2019-02-08T04:38:01.645Z,0
2019-02-08T04:39:02.627Z,0
2019-02-08T04:40:03.338Z,0
2019-02-08T04:41:04.587Z,0
2019-02-08T04:42:05.564Z,0
2019-02-08T04:43:06.257Z,0
2019-02-08T04:44:06.989Z,0
2019-02-08T04:45:07.402Z,0
2019-02-08T04:46:08.913Z,0
2019-02-08T04:47:09.326Z,0
2019-02-08T04:48:10.772Z,0
2019-02-08T04:49:11.198Z,0
2019-02-08T04:50:12.742Z,0
2019-02-08T04:51:12.434Z,0
2019-02-08T04:52:13.687Z,0
2019-02-08T04:53:13.685Z,0
2019-02-08T04:54:14.143Z,0
2019-02-08T04:55:16.117Z,0
2019-02-08T04:56:17.238Z,0
2019-02-08T04:57:18.485Z,0
2019-02-08T04:58:17.937Z,0
2019-02-08T04:59:18.627Z,0
2019-02-08T05:01:19.897Z,0
2019-02-08T05:02:20.864Z,0
2019-02-08T05:03:22.105Z,0
2019-02-08T05:04:23.349Z,0
2019-02-08T05:05:23.050Z,0
2019-02-08T05:06:24.725Z,0
2019-02-08T05:07:25.408Z,0
2019-02-08T05:08:26.109Z,0
2019-02-08T05:09:27.694Z,0
2019-02-08T05:10:27.377Z,0
2019-02-08T05:11:28.898Z,0
2019-02-08T05:12:29.599Z,0
2019-02-08T05:13:29.595Z,0
2019-02-08T05:14:30.274Z,0
2019-02-08T05:15:31.269Z,0
2019-02-08T05:16:31.866Z,0
2019-02-08T05:17:32.286Z,0
2019-02-08T05:18:33.269Z,0
2019-02-08T05:19:34.236Z,0
2019-02-08T05:20:34.920Z,0
2019-02-08T05:21:35.342Z,0
2019-02-08T05:22:36.599Z,0
2019-02-08T05:23:37.288Z,0
2019-02-08T05:24:45.655Z,0
2019-02-08T05:24:51.289Z,0
2019-02-08T05:25:51.741Z,0
2019-02-08T05:26:52.149Z,0
2019-02-08T05:27:55.232Z,0
2019-02-08T05:28:56.210Z,0
2019-02-08T05:29:56.892Z,0
2019-02-08T05:30:57.589Z,0
2019-02-08T05:31:58.011Z,0
2019-02-08T05:32:59.535Z,0
2019-02-08T05:33:59.502Z,0
2019-02-08T05:35:00.679Z,0
2019-02-08T05:36:01.374Z,0
2019-02-08T05:37:02.334Z,0
2019-02-08T05:38:03.297Z,0
2019-02-08T05:39:02.988Z,0
2019-02-08T05:40:04.504Z,0
2019-02-08T05:41:04.465Z,0
2019-02-08T05:42:05.437Z,0
2019-02-08T05:43:06.695Z,0
2019-02-08T05:44:06.952Z,0
2019-02-08T05:45:07.914Z,0
2019-02-08T05:46:08.321Z,0
2019-02-08T05:47:09.004Z,0
2019-02-08T05:48:09.685Z,0
2019-02-08T05:49:10.925Z,0
2019-02-08T05:50:10.890Z,0
2019-02-08T05:51:11.310Z,0
2019-02-08T05:52:12.280Z,0
2019-02-08T05:53:12.966Z,0
2019-02-08T05:54:13.666Z,0
2019-02-08T05:55:14.073Z,0
2019-02-08T05:56:15.459Z,0
2019-02-08T05:57:15.587Z,0
2019-02-08T05:58:16.719Z,0
2019-02-08T05:59:17.167Z,0
2019-02-08T06:00:19.132Z,0
2019-02-08T06:01:18.538Z,0
2019-02-08T06:02:20.556Z,0
2019-02-08T06:03:20.545Z,0
2019-02-08T06:04:21.256Z,0
2019-02-08T06:05:21.945Z,0
2019-02-08T06:06:22.621Z,0
2019-02-08T06:07:23.325Z,0
2019-02-08T06:08:24.563Z,0
2019-02-08T06:09:24.823Z,0
2019-02-08T06:10:24.785Z,0
2019-02-08T06:11:25.757Z,0
2019-02-08T06:12:26.442Z,0
2019-02-08T06:13:27.979Z,0
2019-02-08T06:14:27.956Z,0
2019-02-08T06:15:27.932Z,0
2019-02-08T06:16:29.901Z,0
2019-02-08T06:17:30.155Z,0
2019-02-08T06:18:30.582Z,0
2019-02-08T06:19:31.003Z,0
2019-02-08T06:20:31.419Z,0
2019-02-08T06:21:32.100Z,0
2019-02-08T06:22:32.787Z,0
2019-02-08T06:23:33.476Z,0
2019-02-08T06:24:34.445Z,5.63
2019-02-08T06:25:35.425Z,5.63
2019-02-08T06:26:35.957Z,5.63
2019-02-08T06:27:36.648Z,5.63
2019-02-08T06:28:36.618Z,5.63
2019-02-08T06:29:37.593Z,5.63
2019-02-08T06:30:38.012Z,11.25
2019-02-08T06:31:38.991Z,11.25
2019-02-08T06:32:39.686Z,11.25
2019-02-08T06:33:40.647Z,11.25
2019-02-08T06:34:44.014Z,16.88
2019-02-08T06:35:42.015Z,16.88
2019-02-08T06:36:42.841Z,16.88
2019-02-08T06:37:47.248Z,22.5
2019-02-08T06:38:48.770Z,22.5
2019-02-08T06:39:47.904Z,22.5
2019-02-08T06:40:49.588Z,28.13
2019-02-08T06:41:50.559Z,28.13
2019-02-08T06:42:50.260Z,33.75
2019-02-08T06:43:51.950Z,33.75
2019-02-08T06:44:52.923Z,33.75
2019-02-08T06:45:53.330Z,39.38
2019-02-08T06:46:55.029Z,39.38
2019-02-08T06:47:55.570Z,45
2019-02-08T06:48:56.003Z,45
2019-02-08T06:49:56.967Z,50.63
2019-02-08T06:50:57.953Z,50.63
2019-02-08T06:51:58.677Z,50.63
2019-02-08T06:52:59.389Z,56.25
2019-02-08T06:54:00.354Z,56.25
2019-02-08T06:55:01.148Z,67.5
2019-02-08T06:56:01.666Z,95.63
2019-02-08T06:57:02.834Z,101.25
2019-02-08T06:58:03.526Z,78.75
2019-02-08T06:59:04.268Z,78.75
2019-02-08T07:00:05.234Z,78.75
2019-02-08T07:01:05.198Z,84.38
2019-02-08T07:02:05.610Z,90
2019-02-08T07:03:07.513Z,90
2019-02-08T07:04:09.053Z,101.25
2019-02-08T07:05:09.826Z,135
2019-02-08T07:06:10.797Z,168.75
2019-02-08T07:07:11.508Z,168.75
2019-02-08T07:08:12.468Z,163.13
2019-02-08T07:09:12.604Z,174.38
2019-02-08T07:10:14.298Z,168.75
2019-02-08T07:11:15.018Z,168.75
2019-02-08T07:12:15.795Z,129.38
2019-02-08T07:13:16.253Z,163.13
2019-02-08T07:14:16.682Z,219.38
2019-02-08T07:15:17.875Z,163.13
2019-02-08T07:16:18.566Z,157.5
2019-02-08T07:17:19.672Z,191.25
2019-02-08T07:18:20.164Z,168.75
2019-02-08T07:19:20.817Z,146.25
2019-02-08T07:20:21.780Z,140.63
2019-02-08T07:21:22.535Z,146.25
2019-02-08T07:22:22.682Z,157.5
2019-02-08T07:23:24.383Z,286.88
2019-02-08T07:24:25.072Z,399.38
2019-02-08T07:25:25.549Z,315
2019-02-08T07:26:26.304Z,331.88
2019-02-08T07:27:26.678Z,421.88
2019-02-08T07:28:28.861Z,551.25
2019-02-08T07:29:29.975Z,500.63
2019-02-08T07:30:30.419Z,438.75
2019-02-08T07:31:30.836Z,540
2019-02-08T07:32:31.530Z,742.5
2019-02-08T07:33:32.291Z,725.63
2019-02-08T07:34:33.041Z,658.13
2019-02-08T07:35:34.503Z,686.25
2019-02-08T07:36:35.504Z,427.5
2019-02-08T07:37:36.508Z,253.13
2019-02-08T07:38:36.981Z,253.13
2019-02-08T07:39:37.977Z,264.38
2019-02-08T07:40:38.671Z,309.38
2019-02-08T07:41:39.917Z,911.25
2019-02-08T07:42:40.613Z,1321.88
2019-02-08T07:43:41.604Z,1085.63
2019-02-08T07:44:41.851Z,1198.13
2019-02-08T07:45:42.398Z,1485
2019-02-08T07:46:42.818Z,1614.38
2019-02-08T07:47:43.663Z,1552.5
2019-02-08T07:48:44.398Z,1473.75
2019-02-08T07:49:45.191Z,1434.38
2019-02-08T07:50:46.208Z,1063.13
2019-02-08T07:51:46.627Z,894.38
2019-02-08T07:52:49.761Z,1254.38
2019-02-08T07:53:48.240Z,1440
2019-02-08T07:54:48.998Z,1434.38
2019-02-08T07:55:49.148Z,995.63
2019-02-08T07:56:50.893Z,551.25
2019-02-08T07:57:51.833Z,517.5
2019-02-08T07:58:52.221Z,911.25
2019-02-08T07:59:53.477Z,1231.88
2019-02-08T08:00:54.180Z,1147.5
2019-02-08T08:01:54.327Z,1040.63
2019-02-08T08:02:56.028Z,1378.13
2019-02-08T08:04:09.804Z,1400.63
2019-02-08T08:05:10.913Z,1074.38
2019-02-08T08:06:11.660Z,776.25
2019-02-08T08:07:12.994Z,832.5
2019-02-08T08:08:14.117Z,928.13
2019-02-08T08:09:14.104Z,990
2019-02-08T08:10:15.097Z,1108.13
2019-02-08T08:11:15.596Z,990
2019-02-08T08:12:15.756Z,804.38
2019-02-08T08:13:17.499Z,568.13
2019-02-08T08:14:18.471Z,624.38
2019-02-08T08:15:18.036Z,950.63
2019-02-08T08:16:19.741Z,1254.38
2019-02-08T08:17:21.414Z,1350
2019-02-08T08:18:22.126Z,866.25
2019-02-08T08:19:22.823Z,421.88
2019-02-08T08:20:24.109Z,421.88
2019-02-08T08:21:25.103Z,680.63
2019-02-08T08:22:25.805Z,1096.88
2019-02-08T08:23:26.509Z,1383.75
2019-02-08T08:24:29.761Z,1755
2019-02-08T08:25:40.272Z,1901.25
2019-02-08T08:26:41.151Z,1687.5
2019-02-08T08:27:42.055Z,1608.75
2019-02-08T08:28:44.033Z,1423.13
2019-02-08T08:29:50.454Z,1282.5
2019-02-08T08:30:03.185Z,1293.75
2019-02-08T08:30:13.957Z,1316.25
2019-02-08T08:31:09.277Z,1237.5
2019-02-08T08:32:10.260Z,736.88
2019-02-08T08:33:10.681Z,382.5
2019-02-08T08:34:11.935Z,388.13
2019-02-08T08:35:12.471Z,382.5
2019-02-08T08:36:13.450Z,382.5
2019-02-08T08:37:13.598Z,388.13
2019-02-08T08:38:14.295Z,388.13
2019-02-08T08:39:14.479Z,405
2019-02-08T08:40:15.490Z,596.25
2019-02-08T08:41:16.616Z,928.13
2019-02-08T08:42:17.120Z,1074.38
2019-02-08T08:43:17.548Z,900
2019-02-08T08:44:18.534Z,804.38
2019-02-08T08:45:18.678Z,871.88
2019-02-08T08:46:19.781Z,950.63
2019-02-08T08:47:21.662Z,1372.5
2019-02-08T08:48:22.356Z,1698.75
2019-02-08T08:49:22.790Z,1946.25
2019-02-08T08:50:23.491Z,1575
2019-02-08T08:51:24.775Z,1170
2019-02-08T08:52:25.197Z,1119.38
2019-02-08T08:53:25.628Z,978.75
2019-02-08T08:54:27.329Z,933.75
2019-02-08T08:55:28.290Z,916.88
2019-02-08T08:56:29.287Z,1271.25
2019-02-08T08:57:29.994Z,1057.5
2019-02-08T08:58:30.415Z,691.88
2019-02-08T08:59:31.843Z,928.13
2019-02-08T09:00:34.601Z,1057.5
2019-02-08T09:01:46.367Z,933.75
2019-02-08T09:03:05.847Z,652.5
2019-02-08T09:03:17.098Z,607.5
2019-02-08T09:03:25.635Z,590.63
2019-02-08T09:04:25.933Z,433.13
2019-02-08T09:05:27.371Z,427.5
2019-02-08T09:06:27.297Z,433.13
2019-02-08T09:07:27.159Z,433.13
2019-02-08T09:08:27.868Z,433.13
2019-02-08T09:09:28.293Z,444.38
2019-02-08T09:10:31.745Z,450
2019-02-08T09:11:31.198Z,450
2019-02-08T09:12:31.618Z,455.63
2019-02-08T09:13:32.313Z,618.75
2019-02-08T09:14:32.092Z,888.75
2019-02-08T09:15:33.846Z,798.75
2019-02-08T09:16:34.840Z,781.88
2019-02-08T09:17:53.823Z,703.13
2019-02-08T09:18:19.713Z,675
2019-02-08T09:18:27.011Z,658.13
2019-02-08T09:19:26.189Z,624.38
2019-02-08T09:20:26.899Z,714.38
2019-02-08T09:21:27.597Z,984.38
2019-02-08T09:22:28.018Z,1186.88
2019-02-08T09:23:28.477Z,1282.5
2019-02-08T09:24:29.184Z,1468.13
2019-02-08T09:25:29.878Z,1237.5
2019-02-08T09:26:30.577Z,1175.63
2019-02-08T09:27:31.551Z,1338.75
2019-02-08T09:28:31.257Z,1158.75
2019-02-08T09:29:33.162Z,894.38
2019-02-08T09:30:33.306Z,736.88
2019-02-08T09:31:33.745Z,1136.25
2019-02-08T09:32:35.756Z,1575
2019-02-08T09:33:36.176Z,1822.5
2019-02-08T09:34:37.153Z,2497.5
2019-02-08T09:35:37.870Z,2469.38
2019-02-08T09:36:38.294Z,1535.63
2019-02-08T09:37:41.394Z,652.5
2019-02-08T09:38:41.499Z,607.5
2019-02-08T09:39:42.157Z,1136.25
2019-02-08T09:40:42.338Z,2379.38
2019-02-08T09:41:43.041Z,2733.75
2019-02-08T09:42:43.769Z,2700
2019-02-08T09:43:44.227Z,2964.38
2019-02-08T09:44:44.370Z,2610
2019-02-08T09:45:44.793Z,1749.38
2019-02-08T09:46:51.685Z,1063.13
2019-02-08T09:46:58.294Z,1051.88
2019-02-08T09:48:00.640Z,1575
2019-02-08T09:49:00.816Z,1755
2019-02-08T09:50:01.316Z,2216.25
2019-02-08T09:51:06.712Z,1980
2019-02-08T09:51:16.223Z,1856.25
2019-02-08T09:52:15.003Z,1316.25
2019-02-08T09:53:15.454Z,2272.5
2019-02-08T09:54:15.892Z,3369.38
2019-02-08T09:55:17.314Z,2891.25
2019-02-08T09:56:18.297Z,2874.38
2019-02-08T09:57:18.725Z,3121.88
2019-02-08T09:58:20.103Z,3121.88
2019-02-08T09:59:19.305Z,2733.75
2019-02-08T10:00:20.455Z,2278.13
2019-02-08T10:01:21.435Z,1946.25
2019-02-08T10:02:22.419Z,1732.5
2019-02-08T10:03:23.154Z,2086.88
2019-02-08T10:04:23.859Z,2812.5
2019-02-08T10:05:24.758Z,3172.5
2019-02-08T10:06:28.235Z,3003.75
2019-02-08T10:07:30.961Z,2784.38
2019-02-08T10:08:27.472Z,2520
2019-02-08T10:09:31.241Z,2216.25
2019-02-08T10:10:29.735Z,1974.38
2019-02-08T10:11:43.282Z,1951.88
2019-02-08T10:12:47.512Z,2424.38
2019-02-08T10:13:44.964Z,2604.38
2019-02-08T10:14:45.944Z,2593.13
2019-02-08T10:15:46.929Z,2688.75
2019-02-08T10:16:47.352Z,2643.75
2019-02-08T10:17:49.103Z,2857.5
2019-02-08T10:19:04.793Z,2655
2019-02-08T10:20:02.935Z,2638.13
2019-02-08T10:21:03.085Z,2925
2019-02-08T10:22:05.350Z,3189.38
2019-02-08T10:23:05.326Z,3521.25
2019-02-08T10:24:05.768Z,2908.13
2019-02-08T10:25:06.777Z,2745
2019-02-08T10:26:08.071Z,2880
2019-02-08T10:27:08.501Z,3200.63
2019-02-08T10:28:09.205Z,3498.75
2019-02-08T10:29:09.358Z,3425.63
2019-02-08T10:30:10.787Z,3645
2019-02-08T10:31:12.331Z,3729.38
2019-02-08T10:32:12.362Z,3706.88
2019-02-08T10:33:13.068Z,3526.88
2019-02-08T10:34:13.921Z,3538.13
2019-02-08T10:35:14.905Z,3571.88
2019-02-08T10:36:15.120Z,3785.63
2019-02-08T10:37:16.135Z,3735
2019-02-08T10:38:16.287Z,3740.63
2019-02-08T10:39:17.749Z,3510
2019-02-08T10:40:19.218Z,3290.63
2019-02-08T10:41:20.203Z,3318.75
2019-02-08T10:42:21.198Z,3650.63
2019-02-08T10:43:21.352Z,3881.25
2019-02-08T10:44:25.835Z,3870
2019-02-08T10:45:24.365Z,3555
2019-02-08T10:46:26.062Z,3498.75
2019-02-08T10:47:26.672Z,3695.63
2019-02-08T10:48:27.380Z,3802.5
2019-02-08T10:49:29.991Z,3780
2019-02-08T10:50:29.674Z,3633.75
2019-02-08T10:51:29.895Z,3521.25
2019-02-08T10:52:31.047Z,3616.88
2019-02-08T10:53:32.476Z,3600
2019-02-08T10:54:35.507Z,3712.5
2019-02-08T10:55:36.741Z,3757.5
2019-02-08T10:56:39.621Z,3712.5
2019-02-08T10:57:36.283Z,3628.13
2019-02-08T10:58:36.715Z,3768.75
2019-02-08T10:59:37.141Z,3431.25
2019-02-08T11:00:39.137Z,3481.88
2019-02-08T11:01:44.330Z,3532.5
2019-02-08T11:01:51.998Z,3470.63
2019-02-08T11:02:52.470Z,3532.5
2019-02-08T11:03:53.846Z,3453.75
2019-02-08T11:04:55.015Z,3318.75
2019-02-08T11:05:56.850Z,3223.13
2019-02-08T11:06:56.684Z,3352.5
2019-02-08T11:07:56.826Z,3403.13
2019-02-08T11:08:57.015Z,3425.63
2019-02-08T11:09:58.730Z,3493.13
2019-02-08T11:10:59.288Z,3526.88
2019-02-08T11:12:00.065Z,3420
2019-02-08T11:13:00.388Z,3403.13
2019-02-08T11:14:01.117Z,3476.25
2019-02-08T11:15:02.164Z,3515.63
2019-02-08T11:16:05.726Z,3324.38
2019-02-08T11:17:03.152Z,3273.75
2019-02-08T11:18:03.770Z,3144.38
2019-02-08T11:19:04.792Z,3521.25
2019-02-08T11:20:05.222Z,3706.88
2019-02-08T11:21:05.905Z,3431.25
2019-02-08T11:22:06.616Z,3105
2019-02-08T11:23:08.135Z,3313.13
2019-02-08T11:24:09.118Z,3380.63
2019-02-08T11:25:09.645Z,3133.13
2019-02-08T11:26:10.356Z,2953.13
2019-02-08T11:27:10.823Z,3127.5
2019-02-08T11:28:13.282Z,3352.5
2019-02-08T11:29:13.420Z,3161.25
2019-02-08T11:30:14.395Z,2885.63
2019-02-08T11:31:14.972Z,2790
2019-02-08T11:32:16.231Z,2109.38
2019-02-08T11:33:16.239Z,2070
2019-02-08T11:34:16.721Z,2784.38
2019-02-08T11:35:17.860Z,2947.5
2019-02-08T11:36:18.875Z,2767.5
2019-02-08T11:37:19.026Z,2548.13
2019-02-08T11:38:20.480Z,1940.63
2019-02-08T11:39:21.228Z,1282.5
2019-02-08T11:40:22.210Z,1141.88
2019-02-08T11:41:23.472Z,1355.63
2019-02-08T11:42:24.189Z,2323.13
2019-02-08T11:43:25.175Z,3071.25
2019-02-08T11:44:25.720Z,3234.38
2019-02-08T11:45:25.221Z,2818.13
2019-02-08T11:46:25.651Z,1980
2019-02-08T11:47:26.080Z,2593.13
2019-02-08T11:48:27.413Z,2840.63
2019-02-08T11:49:26.844Z,1963.13
2019-02-08T11:50:27.338Z,1136.25
2019-02-08T11:51:28.075Z,1282.5
2019-02-08T11:52:28.845Z,1777.5
2019-02-08T11:53:29.814Z,1462.5
2019-02-08T11:54:30.127Z,1563.75
2019-02-08T11:55:33.030Z,1912.5
2019-02-08T11:56:37.320Z,1507.5
2019-02-08T11:56:48.576Z,1524.38
2019-02-08T11:57:45.221Z,1940.63
2019-02-08T11:58:46.244Z,1620
2019-02-08T11:59:47.263Z,1333.13
2019-02-08T12:00:47.688Z,1608.75
2019-02-08T12:01:48.114Z,1766.25
2019-02-08T12:02:48.296Z,1878.75
2019-02-08T12:03:50.313Z,2514.38
2019-02-08T12:04:51.057Z,2508.75
2019-02-08T12:05:51.491Z,2452.5
2019-02-08T12:06:52.231Z,2452.5
2019-02-08T12:07:53.311Z,2868.75
2019-02-08T12:08:54.020Z,3183.75
2019-02-08T12:09:54.776Z,2953.13
2019-02-08T12:10:55.503Z,2818.13
2019-02-08T12:11:56.209Z,2941.88
2019-02-08T12:12:56.926Z,2981.25
2019-02-08T12:13:57.641Z,2491.88
2019-02-08T12:14:58.343Z,1951.88
2019-02-08T12:15:58.776Z,2390.63
2019-02-08T12:17:02.002Z,2846.25
2019-02-08T12:18:11.937Z,2806.88
2019-02-08T12:19:12.804Z,2295
2019-02-08T12:20:14.512Z,2385
2019-02-08T12:21:15.220Z,2570.63
2019-02-08T12:22:15.650Z,2677.5
2019-02-08T12:23:16.227Z,2542.5
2019-02-08T12:24:22.636Z,2469.38
2019-02-08T12:24:30.769Z,2458.13
2019-02-08T12:25:31.884Z,2525.63
2019-02-08T12:26:45.260Z,2126.25
2019-02-08T12:27:45.679Z,1794.38
2019-02-08T12:28:46.792Z,2148.75
2019-02-08T12:29:47.498Z,2379.38
2019-02-08T12:30:48.778Z,2047.5
2019-02-08T12:31:49.203Z,2070
2019-02-08T12:32:49.631Z,2216.25
2019-02-08T12:33:50.058Z,2424.38
2019-02-08T12:35:07.850Z,2379.38
2019-02-08T12:36:04.695Z,2722.5
2019-02-08T12:37:05.124Z,2750.63
2019-02-08T12:38:06.124Z,2199.38
2019-02-08T12:39:06.867Z,2407.5
2019-02-08T12:40:08.128Z,2941.88
2019-02-08T12:41:26.208Z,2930.63
2019-02-08T12:42:26.205Z,2480.63
2019-02-08T12:43:25.345Z,1968.75
2019-02-08T12:44:28.824Z,1665
2019-02-08T12:45:35.010Z,1580.63
2019-02-08T12:45:43.450Z,1614.38
2019-02-08T12:46:47.041Z,1968.75
2019-02-08T12:47:01.416Z,1980
2019-02-08T12:47:11.843Z,2008.13
2019-02-08T12:48:08.687Z,1940.63
2019-02-08T12:49:08.837Z,1575
2019-02-08T12:50:10.030Z,1181.25
2019-02-08T12:51:10.189Z,1141.88
2019-02-08T12:52:10.926Z,1125
2019-02-08T12:53:11.353Z,1226.25
2019-02-08T12:54:12.619Z,1783.13
2019-02-08T12:55:13.359Z,2019.38
2019-02-08T12:56:14.088Z,1794.38
2019-02-08T12:57:14.819Z,1738.13
2019-02-08T12:58:15.015Z,2131.88
2019-02-08T12:59:15.161Z,2520
2019-02-08T13:00:16.781Z,2520
2019-02-08T13:01:17.208Z,1980
2019-02-08T13:02:18.539Z,2379.38
2019-02-08T13:03:18.521Z,2041.88
2019-02-08T13:04:19.230Z,2098.13
2019-02-08T13:05:19.935Z,2070
2019-02-08T13:06:21.483Z,2092.5
2019-02-08T13:07:23.831Z,2199.38
2019-02-08T13:08:22.421Z,2221.88
2019-02-08T13:09:23.410Z,2154.38
2019-02-08T13:10:24.125Z,1811.25
2019-02-08T13:11:24.834Z,1591.88
2019-02-08T13:12:24.983Z,2216.25
2019-02-08T13:13:26.426Z,2396.25
2019-02-08T13:14:27.531Z,2205
2019-02-08T13:15:29.905Z,2413.13
2019-02-08T13:16:29.443Z,1546.88
2019-02-08T13:17:29.667Z,2081.25
2019-02-08T13:18:31.752Z,2120.63
2019-02-08T13:19:31.965Z,2120.63
2019-02-08T13:20:32.521Z,2036.25
2019-02-08T13:21:33.244Z,2081.25
2019-02-08T13:22:34.271Z,2430
2019-02-08T13:23:38.853Z,2182.5
2019-02-08T13:24:38.001Z,1873.13
2019-02-08T13:25:38.460Z,1726.88
2019-02-08T13:26:39.502Z,1670.63
2019-02-08T13:27:39.928Z,1766.25
2019-02-08T13:28:40.493Z,1996.88
2019-02-08T13:29:41.316Z,2070
2019-02-08T13:30:42.357Z,1749.38